Time;durP1;ratioP1;P1;durP2;ratioP2;P2;SDS_P1;SDS_P2;PMS_P1;PMS_P2;Temp;Humidity;BMP_temperature;BMP_pressure;BME280_temperature;BME280_humidity;BME280_pressure;Samples;Min_cycle;Max_cycle;Signal;HPM_P1;HPM_P2
2021/12/13 00:01:56;;;;;;;2.58;2.38;;;17.70;42.50;;;;;;5087128;28;48129;-26
2021/12/13 00:04:24;;;;;;;2.95;2.20;;;17.70;42.50;;;;;;5087340;28;47450;-26
2021/12/13 00:06:52;;;;;;;3.58;2.67;;;17.70;42.50;;;;;;5087647;28;46806;-26
2021/12/13 00:09:21;;;;;;;2.85;2.30;;;17.70;42.60;;;;;;5087482;28;46898;-26
2021/12/13 00:11:49;;;;;;;3.00;2.50;;;17.70;42.60;;;;;;5087064;28;47981;-26
2021/12/13 00:14:17;;;;;;;2.90;2.60;;;17.70;42.60;;;;;;5087733;28;46814;-26
2021/12/13 00:16:45;;;;;;;3.08;2.50;;;17.70;42.70;;;;;;5087675;28;47298;-26
2021/12/13 00:19:14;;;;;;;3.13;2.47;;;17.70;42.70;;;;;;5087600;28;47274;-26
2021/12/13 00:21:42;;;;;;;3.22;2.53;;;17.70;42.70;;;;;;5086895;28;48165;-26
2021/12/13 00:24:10;;;;;;;2.85;2.38;;;17.70;42.70;;;;;;5087245;28;47174;-26
2021/12/13 00:26:39;;;;;;;2.85;2.25;;;17.70;42.70;;;;;;5087315;27;46897;-26
2021/12/13 00:29:09;;;;;;;3.10;2.55;;;17.70;42.70;;;;;;5087152;28;47144;-26
2021/12/13 00:31:41;;;;;;;3.63;2.45;;;17.60;42.80;;;;;;5087356;28;48255;-26
2021/12/13 00:34:21;;;;;;;2.45;2.22;;;17.60;42.90;;;;;;5087192;28;46803;-26
2021/12/13 00:36:50;;;;;;;3.55;2.75;;;17.60;42.90;;;;;;5087032;27;46908;-27
2021/12/13 00:39:19;;;;;;;3.53;2.35;;;17.60;42.90;;;;;;5087276;27;46940;-26
2021/12/13 00:41:48;;;;;;;2.83;2.10;;;17.60;42.90;;;;;;5086649;28;47190;-26
2021/12/13 00:44:18;;;;;;;3.03;2.67;;;17.60;43.00;;;;;;5087118;28;47500;-17
2021/12/13 00:46:45;;;;;;;2.13;1.92;;;17.60;42.90;;;;;;5087018;28;46836;-17
2021/12/13 00:49:13;;;;;;;3.35;2.47;;;17.60;43.50;;;;;;5087031;28;47222;-18
2021/12/13 00:51:43;;;;;;;2.50;2.30;;;17.60;43.00;;;;;;5086918;28;48730;-26
2021/12/13 00:54:12;;;;;;;2.58;2.38;;;17.60;43.10;;;;;;5086666;28;47217;-26
2021/12/13 00:56:48;;;;;;;2.80;2.35;;;17.60;43.10;;;;;;5086347;28;46818;-26
2021/12/13 00:59:20;;;;;;;2.55;2.17;;;17.60;43.10;;;;;;5087025;28;46839;-17
2021/12/13 01:01:54;;;;;;;4.03;2.50;;;17.60;43.10;;;;;;5086303;27;48120;-17
2021/12/13 01:04:21;;;;;;;2.95;2.10;;;17.60;43.10;;;;;;5086453;28;46892;-17
2021/12/13 01:07:26;;;;;;;2.47;2.17;;;17.60;43.10;;;;;;5086489;27;46920;-17
2021/12/13 01:10:08;;;;;;;2.63;2.25;;;17.50;43.10;;;;;;5086480;28;46896;-17
2021/12/13 01:12:36;;;;;;;2.30;2.00;;;17.50;43.10;;;;;;5086731;28;48106;-26
2021/12/13 01:15:05;;;;;;;2.72;2.28;;;17.50;43.20;;;;;;5086382;27;46943;-26
2021/12/13 01:17:44;;;;;;;2.30;2.10;;;17.50;43.20;;;;;;5086510;27;46847;-26
2021/12/13 01:20:17;;;;;;;2.67;2.05;;;17.50;43.30;;;;;;5086509;28;46927;-26
2021/12/13 01:22:49;;;;;;;2.83;2.20;;;17.50;43.30;;;;;;5086480;27;47898;-17
2021/12/13 01:25:38;;;;;;;2.58;2.38;;;17.40;43.30;;;;;;5086389;28;46881;-17
2021/12/13 01:28:21;;;;;;;2.42;2.10;;;17.40;43.90;;;;;;5086479;28;46830;-17
2021/12/13 01:30:50;;;;;;;2.58;2.10;;;17.40;43.30;;;;;;5086269;28;46868;-17
2021/12/13 01:33:17;;;;;;;2.63;2.20;;;17.40;43.30;;;;;;5085919;28;49110;-17
2021/12/13 01:35:46;;;;;;;2.50;2.22;;;17.40;43.40;;;;;;5085894;28;46893;-17
2021/12/13 01:38:14;;;;;;;2.55;2.35;;;17.40;43.40;;;;;;5086270;28;46731;-18
2021/12/13 01:40:43;;;;;;;2.88;2.42;;;17.40;43.40;;;;;;5085962;28;47045;-18
2021/12/13 01:43:12;;;;;;;2.55;2.17;;;17.40;43.40;;;;;;5086085;28;47912;-17
2021/12/13 01:45:40;;;;;;;2.40;2.20;;;17.40;43.40;;;;;;5085841;28;46865;-17
2021/12/13 01:48:07;;;;;;;2.42;2.05;;;17.40;43.40;;;;;;5086241;28;46853;-18
2021/12/13 01:50:43;;;;;;;2.47;2.28;;;17.40;43.50;;;;;;5086161;28;47161;-17
2021/12/13 01:53:10;;;;;;;3.05;2.08;;;17.40;43.50;;;;;;5086101;28;46977;-17
2021/12/13 01:55:39;;;;;;;2.38;1.92;;;17.40;43.50;;;;;;5085540;28;46913;-26
2021/12/13 01:58:34;;;;;;;2.45;2.25;;;17.40;43.50;;;;;;5085691;28;46823;-26
2021/12/13 02:01:10;;;;;;;2.40;2.20;;;17.40;43.60;;;;;;5085693;27;47178;-18
2021/12/13 02:03:47;;;;;;;2.75;2.47;;;17.40;43.50;;;;;;5085931;27;47845;-17
2021/12/13 02:06:15;;;;;;;2.30;2.10;;;17.40;43.60;;;;;;5085437;28;46843;-17
2021/12/13 02:08:41;;;;;;;3.15;2.58;;;17.40;43.50;;;;;;5085942;28;46893;-17
2021/12/13 02:11:09;;;;;;;2.53;2.30;;;17.30;43.50;;;;;;5085267;28;46884;-17
2021/12/13 02:13:42;;;;;;;2.70;2.50;;;17.30;43.50;;;;;;5084752;28;47140;-17
2021/12/13 02:18:56;;;;;;;2.25;2.03;;;17.30;43.60;;;;;;5082801;28;46839;-19
2021/12/13 02:21:28;;;;;;;2.25;2.05;;;17.30;43.60;;;;;;5085391;28;47032;-26
2021/12/13 02:23:59;;;;;;;2.58;2.05;;;17.30;43.60;;;;;;5085664;28;48817;-26
2021/12/13 02:26:26;;;;;;;4.30;2.75;;;17.30;43.60;;;;;;5085465;28;46926;-26
2021/12/13 02:28:57;;;;;;;2.60;1.92;;;17.30;43.60;;;;;;5085279;28;46882;-26
2021/12/13 02:31:25;;;;;;;2.17;1.98;;;17.30;43.60;;;;;;5085435;28;47018;-26
2021/12/13 02:33:55;;;;;;;2.40;2.20;;;17.30;43.70;;;;;;5084970;28;48826;-26
2021/12/13 02:36:23;;;;;;;2.42;2.22;;;17.30;43.70;;;;;;5085259;28;46875;-26
2021/12/13 02:38:51;;;;;;;2.58;2.38;;;17.30;43.70;;;;;;5085470;28;46888;-17
2021/12/13 02:41:21;;;;;;;2.58;2.33;;;17.30;43.60;;;;;;5085024;28;46708;-17
2021/12/13 02:43:50;;;;;;;3.05;2.42;;;17.20;43.60;;;;;;5085233;28;47012;-17
2021/12/13 02:46:17;;;;;;;2.60;2.28;;;17.20;43.60;;;;;;5085076;28;46878;-17
2021/12/13 02:48:46;;;;;;;2.55;2.25;;;17.20;43.60;;;;;;5085287;28;46938;-17
2021/12/13 02:51:16;;;;;;;2.50;2.30;;;17.20;43.60;;;;;;5084914;28;46903;-17
2021/12/13 02:53:45;;;;;;;3.05;2.30;;;17.20;43.60;;;;;;5085013;28;49029;-26
2021/12/13 02:56:12;;;;;;;2.90;2.60;;;17.20;43.70;;;;;;5084449;28;47057;-26
2021/12/13 02:58:40;;;;;;;2.25;2.05;;;17.20;43.70;;;;;;5084896;28;46832;-26
2021/12/13 03:01:09;;;;;;;2.42;2.22;;;17.20;43.70;;;;;;5084918;28;46830;-27
2021/12/13 03:03:37;;;;;;;2.33;2.00;;;17.20;43.70;;;;;;5084822;27;47948;-26
2021/12/13 03:06:06;;;;;;;2.30;1.90;;;17.20;43.70;;;;;;5084399;28;46948;-26
2021/12/13 03:08:34;;;;;;;3.30;2.30;;;17.20;43.70;;;;;;5085077;28;46763;-26
2021/12/13 03:11:05;;;;;;;2.30;2.05;;;17.20;43.70;;;;;;5085025;28;47111;-27
2021/12/13 03:13:32;;;;;;;2.97;2.13;;;17.20;43.70;;;;;;5084963;27;48069;-26
2021/12/13 03:16:02;;;;;;;2.83;2.25;;;17.20;43.80;;;;;;5084349;28;47698;-26
2021/12/13 03:18:39;;;;;;;2.63;2.42;;;17.20;43.80;;;;;;5084901;28;46961;-26
2021/12/13 03:21:39;;;;;;;2.40;2.20;;;17.20;43.80;;;;;;5084811;28;46892;-26
2021/12/13 03:24:22;;;;;;;2.70;2.13;;;17.10;43.70;;;;;;5050237;27;47861;-26
2021/12/13 03:26:58;;;;;;;2.53;2.15;;;17.10;43.80;;;;;;5088054;28;46822;-17
2021/12/13 03:29:28;;;;;;;2.45;2.25;;;17.10;43.80;;;;;;5088058;28;46802;-17
2021/12/13 03:31:58;;;;;;;2.40;2.10;;;17.10;43.80;;;;;;5088369;28;47174;-18
2021/12/13 03:34:26;;;;;;;3.13;2.08;;;17.10;43.80;;;;;;5087767;28;49043;-17
2021/12/13 03:36:57;;;;;;;3.08;2.30;;;17.10;43.80;;;;;;5087868;27;47174;-17
2021/12/13 03:39:24;;;;;;;2.95;2.22;;;17.10;43.80;;;;;;5088234;28;46794;-18
2021/12/13 03:41:52;;;;;;;2.50;2.30;;;17.10;43.80;;;;;;5087699;28;46855;-17
2021/12/13 03:44:21;;;;;;;2.38;2.17;;;17.10;43.80;;;;;;5087647;28;46806;-17
2021/12/13 03:46:49;;;;;;;2.38;2.17;;;17.10;43.80;;;;;;5087658;28;47030;-17
2021/12/13 03:49:18;;;;;;;2.40;2.20;;;17.10;43.80;;;;;;5087723;28;46821;-18
2021/12/13 03:51:45;;;;;;;2.20;2.10;;;17.10;43.80;;;;;;5088008;28;46826;-26
2021/12/13 03:54:13;;;;;;;2.53;2.33;;;17.00;43.80;;;;;;5087507;28;47054;-27
2021/12/13 03:56:42;;;;;;;2.38;2.17;;;17.00;43.80;;;;;;5087031;28;47457;-26
2021/12/13 03:59:10;;;;;;;2.65;2.45;;;17.00;43.80;;;;;;5087924;27;46875;-18
2021/12/13 04:01:41;;;;;;;2.03;1.83;;;17.00;43.80;;;;;;5087768;28;47211;-17
2021/12/13 04:04:09;;;;;;;2.53;2.30;;;17.00;43.80;;;;;;5087333;28;46864;-17
2021/12/13 04:06:42;;;;;;;2.55;2.35;;;17.00;43.80;;;;;;5087193;28;46814;-17
2021/12/13 04:09:09;;;;;;;2.40;2.20;;;17.00;43.80;;;;;;5087657;27;46843;-16
2021/12/13 04:11:35;;;;;;;2.80;2.22;;;16.90;43.80;;;;;;5087678;28;46857;-26
2021/12/13 04:14:09;;;;;;;2.15;1.90;;;16.90;43.90;;;;;;5087402;28;48055;-26
2021/12/13 04:16:49;;;;;;;2.38;2.15;;;16.90;43.90;;;;;;5087579;28;46902;-26
2021/12/13 04:19:18;;;;;;;2.20;2.00;;;16.90;43.90;;;;;;5087349;27;46802;-26
2021/12/13 04:21:49;;;;;;;2.50;2.10;;;16.90;43.90;;;;;;5087107;28;47296;-28
2021/12/13 04:24:29;;;;;;;2.95;2.25;;;16.90;43.90;;;;;;5087312;28;47993;-18
2021/12/13 04:26:58;;;;;;;1.92;1.83;;;16.90;43.90;;;;;;5087284;28;47062;-17
2021/12/13 04:29:26;;;;;;;2.20;2.03;;;16.90;43.90;;;;;;5087356;28;46791;-17
2021/12/13 04:31:54;;;;;;;2.88;2.30;;;16.90;43.90;;;;;;5086929;28;46877;-26
2021/12/13 04:34:21;;;;;;;2.75;2.28;;;16.90;43.90;;;;;;5087030;28;47924;-26
2021/12/13 04:36:50;;;;;;;2.58;2.00;;;16.80;43.80;;;;;;5086679;28;47436;-26
2021/12/13 04:39:19;;;;;;;2.08;1.88;;;16.80;43.90;;;;;;5087188;28;46898;-17
2021/12/13 04:41:47;;;;;;;2.47;2.10;;;16.80;43.80;;;;;;5086948;27;46881;-17
2021/12/13 04:44:17;;;;;;;2.22;2.03;;;16.80;43.90;;;;;;5087222;28;48855;-26
2021/12/13 04:46:44;;;;;;;2.35;2.15;;;16.80;43.90;;;;;;5086773;28;46862;-26
2021/12/13 04:49:12;;;;;;;2.60;2.30;;;16.80;43.90;;;;;;5086977;28;46889;-26
2021/12/13 04:51:42;;;;;;;2.38;2.17;;;16.80;43.90;;;;;;5086675;28;46882;-26
2021/12/13 04:54:10;;;;;;;2.63;2.20;;;16.80;43.90;;;;;;5087048;27;46941;-17
2021/12/13 04:56:37;;;;;;;2.47;2.28;;;16.80;43.90;;;;;;5086265;28;46881;-18
2021/12/13 04:59:04;;;;;;;2.20;1.80;;;16.80;43.90;;;;;;5086919;28;46778;-17
2021/12/13 05:01:31;;;;;;;2.38;2.25;;;16.70;43.90;;;;;;5086510;28;46867;-17
2021/12/13 05:03:59;;;;;;;2.30;2.10;;;16.70;43.80;;;;;;5086719;28;48082;-18
2021/12/13 05:06:28;;;;;;;2.83;1.90;;;16.70;43.90;;;;;;5086489;28;47070;-26
2021/12/13 05:08:58;;;;;;;2.60;2.25;;;16.70;43.90;;;;;;5086655;28;46900;-27
2021/12/13 05:11:28;;;;;;;2.20;2.00;;;16.70;43.90;;;;;;5086486;27;47292;-26
2021/12/13 05:13:56;;;;;;;2.40;2.20;;;16.70;43.90;;;;;;5086642;27;48198;-26
2021/12/13 05:16:28;;;;;;;2.10;1.90;;;16.70;44.00;;;;;;5085986;28;46938;-17
2021/12/13 05:18:55;;;;;;;2.33;2.13;;;16.70;44.00;;;;;;5086634;28;46837;-26
2021/12/13 05:21:25;;;;;;;2.30;2.10;;;16.70;44.00;;;;;;5086199;28;47313;-27
2021/12/13 05:23:54;;;;;;;2.92;2.30;;;16.60;43.90;;;;;;5086690;28;47946;-26
2021/12/13 05:26:31;;;;;;;3.60;2.20;;;16.60;43.90;;;;;;5086266;27;46806;-26
2021/12/13 05:29:00;;;;;;;2.78;2.55;;;16.60;44.00;;;;;;5086424;28;46819;-26
2021/12/13 05:31:27;;;;;;;2.22;2.03;;;16.60;44.00;;;;;;5086308;28;47269;-17
2021/12/13 05:33:55;;;;;;;2.15;1.92;;;16.60;44.00;;;;;;5086249;27;46984;-17
2021/12/13 05:36:23;;;;;;;2.05;1.85;;;16.60;44.00;;;;;;5085974;28;47003;-26
2021/12/13 05:38:51;;;;;;;2.10;1.90;;;16.60;44.00;;;;;;5086243;27;46841;-26
2021/12/13 05:41:21;;;;;;;2.45;2.05;;;16.60;44.00;;;;;;5086380;28;46719;-26
2021/12/13 05:43:50;;;;;;;2.22;2.03;;;16.60;44.00;;;;;;5086110;28;48959;-26
2021/12/13 05:46:18;;;;;;;2.40;2.20;;;16.60;44.00;;;;;;5085157;28;46987;-26
2021/12/13 05:48:48;;;;;;;2.33;2.13;;;16.60;44.00;;;;;;5085408;28;46908;-26
2021/12/13 05:51:24;;;;;;;2.67;2.00;;;16.60;44.10;;;;;;5086124;28;46958;-26
2021/12/13 05:53:54;;;;;;;2.33;2.10;;;16.60;44.00;;;;;;5085729;28;48787;-27
2021/12/13 05:56:21;;;;;;;2.35;1.88;;;16.60;44.10;;;;;;5085256;27;47427;-26
2021/12/13 05:58:51;;;;;;;2.63;2.38;;;16.50;44.00;;;;;;5085693;28;46818;-26
2021/12/13 06:01:20;;;;;;;2.50;2.30;;;16.50;44.10;;;;;;5085785;28;47223;-17
2021/12/13 06:03:52;;;;;;;2.42;2.17;;;16.50;44.00;;;;;;5085768;28;47046;-26
2021/12/13 06:06:21;;;;;;;2.20;2.00;;;16.50;44.10;;;;;;5085573;28;47454;-26
2021/12/13 06:08:49;;;;;;;2.03;1.83;;;16.50;44.10;;;;;;5085838;27;46940;-26
2021/12/13 06:11:18;;;;;;;2.42;2.22;;;16.50;44.10;;;;;;5085606;28;47265;-26
2021/12/13 06:13:57;;;;;;;2.17;1.80;;;16.50;44.10;;;;;;5085699;28;48064;-26
2021/12/13 06:16:48;;;;;;;2.10;1.90;;;16.50;44.10;;;;;;5085599;28;46814;-17
2021/12/13 06:19:20;;;;;;;2.22;2.03;;;16.50;44.10;;;;;;5085780;28;46771;-26
2021/12/13 06:21:56;;;;;;;2.78;2.35;;;16.50;44.10;;;;;;5085328;27;46885;-27
2021/12/13 06:24:29;;;;;;;3.13;2.35;;;16.50;44.20;;;;;;5085411;28;46922;-26
2021/12/13 06:27:06;;;;;;;2.30;2.10;;;16.50;44.10;;;;;;5085096;28;47127;-26
2021/12/13 06:29:50;;;;;;;2.30;2.10;;;16.40;44.10;;;;;;5085546;27;47010;-26
2021/12/13 06:32:25;;;;;;;2.65;2.33;;;16.40;44.10;;;;;;5083547;27;47244;-26
2021/12/13 06:34:52;;;;;;;2.35;2.03;;;16.40;44.10;;;;;;5083608;28;47074;-26
2021/12/13 06:37:24;;;;;;;1.98;1.88;;;16.40;44.20;;;;;;5084651;27;47046;-27
2021/12/13 06:39:50;;;;;;;2.40;2.20;;;16.40;44.20;;;;;;5084288;28;46947;-26
2021/12/13 06:42:17;;;;;;;2.60;2.40;;;16.40;44.20;;;;;;5085290;28;46834;-26
2021/12/13 06:44:45;;;;;;;2.10;1.90;;;16.40;44.80;;;;;;5085285;28;48240;-26
2021/12/13 06:47:15;;;;;;;2.10;1.90;;;16.40;44.30;;;;;;5085190;28;47111;-27
2021/12/13 06:49:42;;;;;;;2.33;2.13;;;16.40;44.30;;;;;;5085246;28;46975;-18
2021/12/13 06:52:11;;;;;;;2.40;2.20;;;16.30;44.10;;;;;;5085569;28;46964;-18
2021/12/13 06:54:39;;;;;;;2.40;2.20;;;16.30;44.10;;;;;;5096688;27;47935;-17
2021/12/13 06:57:08;;;;;;;2.20;2.00;;;16.30;44.20;;;;;;5104881;27;47246;-17
2021/12/13 06:59:37;;;;;;;2.80;2.20;;;16.30;44.20;;;;;;5107679;27;46867;-17
2021/12/13 07:02:11;;;;;;;2.70;2.40;;;16.30;44.20;;;;;;5109139;27;46829;-17
2021/12/13 07:04:58;;;;;;;2.50;2.25;;;16.30;44.20;;;;;;5109203;27;47706;-17
2021/12/13 07:07:27;;;;;;;2.45;2.22;;;16.30;44.20;;;;;;5108794;27;46964;-17
2021/12/13 07:09:55;;;;;;;2.42;2.22;;;16.30;44.20;;;;;;5108833;27;46793;-17
2021/12/13 07:12:22;;;;;;;3.58;2.33;;;16.30;44.20;;;;;;5100266;27;46829;-17
2021/12/13 07:14:50;;;;;;;2.47;2.22;;;16.30;44.20;;;;;;5088151;28;48075;-17
2021/12/13 07:17:18;;;;;;;3.17;2.53;;;16.30;44.20;;;;;;5092359;27;47039;-18
2021/12/13 07:19:47;;;;;;;3.17;2.58;;;16.30;44.20;;;;;;5108883;27;46802;-17
2021/12/13 07:22:20;;;;;;;2.53;2.25;;;16.30;44.20;;;;;;5109032;27;46903;-17
2021/12/13 07:24:47;;;;;;;2.78;2.38;;;16.30;44.20;;;;;;5108296;27;47001;-26
2021/12/13 07:27:15;;;;;;;2.75;2.53;;;16.30;44.20;;;;;;5096985;27;47007;-26
2021/12/13 07:29:44;;;;;;;2.60;2.40;;;16.30;44.30;;;;;;5099086;27;47002;-26
2021/12/13 07:32:15;;;;;;;3.80;2.75;;;16.20;44.20;;;;;;5096314;27;46929;-26
2021/12/13 07:34:57;;;;;;;2.78;2.55;;;16.20;44.20;;;;;;5099371;27;46976;-26
2021/12/13 07:37:37;;;;;;;2.95;2.65;;;16.20;44.20;;;;;;5096432;27;47427;-27
2021/12/13 07:40:25;;;;;;;3.30;2.80;;;16.20;44.20;;;;;;5093726;27;46940;-27
2021/12/13 07:43:21;;;;;;;3.10;2.80;;;16.20;44.30;;;;;;5093343;27;46807;-27
2021/12/13 07:45:54;;;;;;;3.20;2.90;;;16.20;44.10;;;;;;5074418;28;48109;-28
2021/12/13 07:48:24;;;;;;;4.65;3.08;;;16.20;44.20;;;;;;5092215;27;47130;-29
2021/12/13 07:51:05;;;;;;;4.00;3.30;;;16.20;44.20;;;;;;5097199;27;46979;-28
2021/12/13 07:53:43;;;;;;;3.72;3.20;;;16.20;44.10;;;;;;5095866;27;46875;-29
2021/12/13 07:56:10;;;;;;;4.63;3.05;;;16.20;44.10;;;;;;5104016;27;47922;-27
2021/12/13 07:58:39;;;;;;;4.00;3.60;;;16.20;44.30;;;;;;5106961;27;46955;-27
2021/12/13 08:01:10;;;;;;;4.45;2.85;;;16.20;44.30;;;;;;5107668;27;46919;-27
2021/12/13 08:03:41;;;;;;;4.05;3.33;;;16.20;44.30;;;;;;5108286;27;47113;-27
2021/12/13 08:06:08;;;;;;;5.10;3.63;;;16.20;44.30;;;;;;5107730;27;49040;-26
2021/12/13 08:08:35;;;;;;;3.80;3.40;;;16.20;44.30;;;;;;5107844;27;46976;-26
2021/12/13 08:11:03;;;;;;;3.83;3.40;;;16.20;44.80;;;;;;5106410;27;47008;-26
2021/12/13 08:13:31;;;;;;;4.40;3.67;;;16.20;44.30;;;;;;5108217;27;47234;-26
2021/12/13 08:15:59;;;;;;;5.47;3.88;;;16.10;44.30;;;;;;5107826;27;49205;-27
2021/12/13 08:18:28;;;;;;;4.30;3.90;;;16.10;44.30;;;;;;5107897;27;47473;-26
2021/12/13 08:20:56;;;;;;;4.20;3.80;;;16.10;44.30;;;;;;5107834;27;46851;-26
2021/12/13 08:23:24;;;;;;;3.97;3.58;;;16.10;44.30;;;;;;5108197;27;47286;-26
2021/12/13 08:25:52;;;;;;;5.75;3.97;;;16.10;44.30;;;;;;5107612;27;48026;-27
2021/12/13 08:28:29;;;;;;;3.88;3.50;;;16.10;44.30;;;;;;5107562;27;46819;-26
2021/12/13 08:30:57;;;;;;;5.15;4.03;;;16.10;44.30;;;;;;5107769;27;47047;-17
2021/12/13 08:33:31;;;;;;;4.15;3.75;;;16.10;44.30;;;;;;5108125;27;47194;-18
2021/12/13 08:36:01;;;;;;;6.38;4.50;;;16.10;44.30;;;;;;5107340;27;48382;-17
2021/12/13 08:38:34;;;;;;;5.25;4.20;;;16.10;44.30;;;;;;5106280;27;46889;-26
2021/12/13 08:41:02;;;;;;;6.97;4.45;;;16.10;44.40;;;;;;5104785;27;46909;-26
2021/12/13 08:43:39;;;;;;;6.32;4.72;;;16.10;44.40;;;;;;5105172;27;47281;-26
2021/12/13 08:46:06;;;;;;;6.05;4.50;;;16.10;44.40;;;;;;5106328;27;48219;-26
2021/12/13 08:48:39;;;;;;;7.72;4.88;;;16.10;44.40;;;;;;5106918;27;46910;-26
2021/12/13 08:51:06;;;;;;;5.05;4.47;;;16.10;44.40;;;;;;5106164;27;46950;-26
2021/12/13 08:53:35;;;;;;;8.80;4.85;;;16.10;44.40;;;;;;5106343;27;46910;-26
2021/12/13 08:56:04;;;;;;;6.22;4.88;;;16.10;44.40;;;;;;5106278;27;49239;-17
2021/12/13 08:58:31;;;;;;;6.68;5.05;;;16.10;44.40;;;;;;5107129;27;46793;-17
2021/12/13 09:01:00;;;;;;;9.27;5.00;;;16.10;44.40;;;;;;5106960;27;46975;-27
2021/12/13 09:03:39;;;;;;;7.55;5.28;;;16.10;44.40;;;;;;5107594;27;46858;-17
2021/12/13 09:06:26;;;;;;;7.78;4.78;;;16.20;44.40;;;;;;5106125;27;47070;-17
2021/12/13 09:08:54;;;;;;;7.43;5.65;;;16.20;44.20;;;;;;5086350;27;47090;-26
2021/12/13 09:11:25;;;;;;;8.95;5.03;;;16.20;44.40;;;;;;5086375;28;46855;-26
2021/12/13 09:13:54;;;;;;;7.90;5.18;;;16.20;44.40;;;;;;5086838;28;46966;-26
2021/12/13 09:16:25;;;;;;;9.32;5.43;;;16.20;44.40;;;;;;5086541;28;48041;-26
2021/12/13 09:19:14;;;;;;;8.85;5.68;;;16.20;44.40;;;;;;5086226;28;46810;-26
2021/12/13 09:21:47;;;;;;;6.15;4.95;;;16.20;44.40;;;;;;5086481;28;46897;-26
2021/12/13 09:24:22;;;;;;;7.63;5.75;;;16.20;44.40;;;;;;5086612;28;46974;-17
2021/12/13 09:26:49;;;;;;;8.55;5.38;;;16.20;44.40;;;;;;5086092;27;47244;-26
2021/12/13 09:29:17;;;;;;;8.32;5.40;;;16.20;44.40;;;;;;5086487;28;47345;-17
2021/12/13 09:31:45;;;;;;;7.15;5.53;;;16.20;44.40;;;;;;5086377;28;46881;-18
2021/12/13 09:34:14;;;;;;;7.53;5.07;;;16.20;44.40;;;;;;5086346;28;47219;-17
2021/12/13 09:36:42;;;;;;;6.88;5.70;;;16.30;44.40;;;;;;5086150;28;48420;-26
2021/12/13 09:39:12;;;;;;;6.90;5.63;;;16.20;44.40;;;;;;5086376;28;47212;-18
2021/12/13 09:41:42;;;;;;;10.30;6.22;;;16.30;44.40;;;;;;5086122;28;47018;-26
2021/12/13 09:44:19;;;;;;;6.88;5.88;;;16.30;44.40;;;;;;5085788;27;46985;-26
2021/12/13 09:46:52;;;;;;;9.05;6.03;;;16.30;44.40;;;;;;5089136;27;48738;-26
2021/12/13 09:49:23;;;;;;;7.47;5.65;;;16.30;44.40;;;;;;5086562;27;46945;-26
2021/12/13 09:51:51;;;;;;;9.80;5.80;;;16.30;44.40;;;;;;5085990;27;46944;-27
2021/12/13 09:54:21;;;;;;;13.57;5.88;;;16.40;44.90;;;;;;5085946;27;47270;-27
2021/12/13 09:56:50;;;;;;;8.30;5.53;;;16.50;45.20;;;;;;5084116;28;47111;-28
2021/12/13 09:59:24;;;;;;;7.95;5.90;;;16.60;45.40;;;;;;5085560;28;47586;-30
2021/12/13 10:01:52;;;;;;;10.65;6.35;;;16.70;45.90;;;;;;5099527;27;47175;-29
2021/12/13 10:04:20;;;;;;;8.75;6.63;;;16.80;44.70;;;;;;5096871;27;46908;-28
2021/12/13 10:06:49;;;;;;;9.35;7.47;;;16.80;44.30;;;;;;5085207;28;47842;-29
2021/12/13 10:09:17;;;;;;;11.07;7.95;;;16.90;44.10;;;;;;5092762;27;46880;-28
2021/12/13 10:11:48;;;;;;;13.55;7.95;;;17.00;43.90;;;;;;5106037;27;46865;-29
2021/12/13 10:14:15;;;;;;;13.88;8.60;;;17.10;44.10;;;;;;5106602;27;46943;-29
2021/12/13 10:16:43;;;;;;;9.02;7.55;;;17.30;43.90;;;;;;5105610;27;48096;-27
2021/12/13 10:19:14;;;;;;;11.27;7.13;;;17.30;43.60;;;;;;5105545;27;47414;-27
2021/12/13 10:21:42;;;;;;;11.45;7.22;;;17.40;43.40;;;;;;5105745;27;46931;-18
2021/12/13 10:24:13;;;;;;;9.23;6.85;;;17.40;43.10;;;;;;5105896;27;47137;-28
2021/12/13 10:26:41;;;;;;;10.65;7.20;;;17.50;43.10;;;;;;5105180;27;46904;-29
2021/12/13 10:29:10;;;;;;;9.35;6.53;;;17.50;43.20;;;;;;5104309;27;46967;-26
2021/12/13 10:31:39;;;;;;;8.40;6.22;;;17.60;42.50;;;;;;5105113;27;47135;-26
2021/12/13 10:34:08;;;;;;;7.88;6.05;;;17.80;41.70;;;;;;5108425;27;46902;-27
2021/12/13 10:36:39;;;;;;;8.98;5.97;;;17.90;41.10;;;;;;5109451;27;47959;-26
2021/12/13 10:39:09;;;;;;;7.18;5.95;;;17.90;40.70;;;;;;5109328;27;46904;-27
2021/12/13 10:41:43;;;;;;;6.68;5.13;;;18.00;40.60;;;;;;5109331;27;46811;-27
2021/12/13 10:44:13;;;;;;;7.18;5.22;;;18.00;40.30;;;;;;5109251;27;47091;-26
2021/12/13 10:46:44;;;;;;;6.05;5.05;;;18.10;39.70;;;;;;5109213;27;48889;-25
2021/12/13 10:49:14;;;;;;;5.53;5.03;;;18.20;39.70;;;;;;5109136;27;46840;-26
2021/12/13 10:51:44;;;;;;;7.20;5.72;;;18.20;39.40;;;;;;5109073;27;46856;-26
2021/12/13 10:54:13;;;;;;;7.15;5.40;;;18.20;39.40;;;;;;5109085;27;46864;-27
2021/12/13 10:56:42;;;;;;;7.20;5.00;;;18.20;39.80;;;;;;5108421;27;46906;-26
2021/12/13 10:59:10;;;;;;;7.85;4.97;;;18.40;39.70;;;;;;5109187;27;46867;-26
2021/12/13 11:01:38;;;;;;;7.38;5.07;;;18.50;39.30;;;;;;5108996;27;47030;-26
2021/12/13 11:04:07;;;;;;;7.28;4.90;;;18.60;38.80;;;;;;5108819;27;46869;-27
2021/12/13 11:06:35;;;;;;;8.07;4.25;;;18.70;38.80;;;;;;5108326;27;46903;-27
2021/12/13 11:09:04;;;;;;;8.10;4.78;;;18.70;38.90;;;;;;5108971;27;46910;-26
2021/12/13 11:11:33;;;;;;;7.22;4.50;;;18.80;38.60;;;;;;5108813;27;47035;-26
2021/12/13 11:14:04;;;;;;;5.90;4.78;;;18.80;38.40;;;;;;5108689;27;47139;-26
2021/12/13 11:16:34;;;;;;;5.18;4.68;;;18.90;38.10;;;;;;5108577;27;47086;-27
2021/12/13 11:19:01;;;;;;;5.75;4.75;;;19.00;38.20;;;;;;5108391;27;46853;-26
2021/12/13 11:21:31;;;;;;;6.68;4.63;;;19.10;38.00;;;;;;5107957;27;46802;-26
2021/12/13 11:24:02;;;;;;;5.03;4.30;;;19.20;38.40;;;;;;5108280;27;46930;-26
2021/12/13 11:26:33;;;;;;;4.78;4.25;;;19.20;37.90;;;;;;5102019;27;47759;-31
2021/12/13 11:29:01;;;;;;;5.35;4.40;;;19.10;37.50;;;;;;5087233;28;48186;-27
2021/12/13 11:32:05;;;;;;;4.97;4.47;;;19.10;37.50;;;;;;5087688;28;46949;-26
2021/12/13 11:34:47;;;;;;;6.35;4.55;;;19.00;37.90;;;;;;5086160;28;47040;-27
2021/12/13 11:37:44;;;;;;;6.65;4.38;;;19.00;38.10;;;;;;5084458;27;47420;-26
2021/12/13 11:40:17;;;;;;;6.85;4.07;;;19.10;37.70;;;;;;5085811;28;47237;-28
2021/12/13 11:43:15;;;;;;;4.90;4.20;;;19.20;38.00;;;;;;5085693;27;47282;-28
2021/12/13 11:46:04;;;;;;;6.43;4.05;;;19.50;38.10;;;;;;5083992;27;47217;-29
2021/12/13 11:48:43;;;;;;;7.53;4.85;;;19.90;37.80;;;;;;5085954;27;48772;-29
2021/12/13 11:51:30;;;;;;;5.25;3.88;;;20.20;37.50;;;;;;5087027;27;46914;-28
2021/12/13 11:54:23;;;;;;;5.55;4.38;;;20.40;37.30;;;;;;5087834;27;47126;-29
2021/12/13 11:57:12;;;;;;;5.80;4.00;;;20.60;36.90;;;;;;5087232;27;46985;-29
2021/12/13 11:59:57;;;;;;;4.55;4.10;;;20.70;36.80;;;;;;5073670;28;47138;-28
2021/12/13 12:02:31;;;;;;;6.43;4.60;;;20.60;37.00;;;;;;5087327;27;46857;-28
2021/12/13 12:05:45;;;;;;;4.55;3.95;;;20.70;37.30;;;;;;5088781;27;47017;-27
2021/12/13 12:08:27;;;;;;;6.53;4.00;;;20.80;37.20;;;;;;5041657;27;47169;-28
2021/12/13 12:11:05;;;;;;;4.88;4.00;;;20.90;37.10;;;;;;5106403;27;47046;-29
2021/12/13 12:13:36;;;;;;;7.55;4.60;;;21.10;36.80;;;;;;5090024;27;47082;-30
2021/12/13 12:16:06;;;;;;;11.85;5.47;;;21.30;36.70;;;;;;5100787;27;46854;-30
2021/12/13 12:18:34;;;;;;;5.60;4.82;;;21.40;36.50;;;;;;5107025;27;46910;-27
2021/12/13 12:21:41;;;;;;;5.95;4.15;;;21.40;36.50;;;;;;5106862;27;47202;-28
2021/12/13 12:24:10;;;;;;;6.90;3.88;;;21.30;36.30;;;;;;5100998;27;46782;-29
2021/12/13 12:26:37;;;;;;;4.53;3.90;;;21.20;36.60;;;;;;5107715;27;47012;-29
2021/12/13 12:29:08;;;;;;;5.45;4.30;;;21.20;36.80;;;;;;5107860;27;47083;-27
2021/12/13 12:31:38;;;;;;;5.28;4.00;;;21.10;36.80;;;;;;5107755;27;46846;-28
2021/12/13 12:34:06;;;;;;;4.38;3.78;;;21.00;36.80;;;;;;5107634;27;47801;-29
2021/12/13 12:37:06;;;;;;;6.63;3.80;;;20.90;36.90;;;;;;5107766;27;46950;-29
2021/12/13 12:39:51;;;;;;;4.38;3.40;;;20.80;37.10;;;;;;5106881;27;46999;-28
2021/12/13 12:42:29;;;;;;;5.30;3.42;;;20.70;37.40;;;;;;5106646;27;46895;-28
2021/12/13 12:45:08;;;;;;;4.38;3.20;;;20.60;37.60;;;;;;5105588;27;46924;-28
2021/12/13 12:48:10;;;;;;;3.53;3.00;;;20.60;37.50;;;;;;5105831;27;46986;-28
2021/12/13 12:50:44;;;;;;;4.03;2.65;;;20.60;37.70;;;;;;5094661;27;47486;-29
2021/12/13 12:53:12;;;;;;;3.35;2.50;;;20.50;38.00;;;;;;5104523;27;48985;-27
2021/12/13 12:55:40;;;;;;;2.75;2.53;;;20.50;38.10;;;;;;5104870;27;47057;-30
2021/12/13 12:58:09;;;;;;;4.47;2.55;;;20.50;38.10;;;;;;5106342;27;46807;-28
2021/12/13 13:00:35;;;;;;;7.22;2.90;;;20.60;38.30;;;;;;5107007;27;47230;-28
2021/12/13 13:03:02;;;;;;;3.28;2.40;;;20.60;38.30;;;;;;5107219;27;47749;-28
2021/12/13 13:05:30;;;;;;;10.80;3.03;;;20.60;38.40;;;;;;5106611;27;46901;-28
2021/12/13 13:07:57;;;;;;;10.85;4.43;;;20.60;38.60;;;;;;5107114;27;46727;-29
2021/12/13 13:10:25;;;;;;;8.10;4.63;;;20.70;38.70;;;;;;5106621;27;47058;-29
2021/12/13 13:12:52;;;;;;;4.80;3.90;;;20.70;38.70;;;;;;5106223;27;49120;-28